CheckWX is a tool to help pilots better visualize weather data.  It is not intended as a substitute for an official pre-flight weather briefing.

13:21:45 UTC

LEAM TAF
Almería International Airport
Almería, Spain
TAF LEAM 121400Z 1215/1315 07016KT CAVOK TX35/1215Z TN24/1304Z PROB40 TEMPO 1215/1220 07018G28KT BECMG 1220/1222 05006KT PROB30 TEMPO 1223/1306 34010KT BECMG 1308/1310 08016KT PROB30 TEMPO 1310/1315 08016G26KT

Jul-12@
15:00 UTC

Jul-12 @ 15:00 UTC

Jul-12@
20:00 UTC

Jul-12 @ 20:00 UTC

TAF LEAM 121400Z 1215/1315 07016KT CAVOK TX35/1215Z TN24/1304Z

Expired

Wind
  • 070° at 16 KTS
Cloud Levels
  • No significant clouds

Jul-12@
15:00 UTC

Jul-12 @ 15:00 UTC

Jul-12@
20:00 UTC

Jul-12 @ 20:00 UTC

PROB40 TEMPO 1215/1220 07018G28KT

Expired

Wind
  • 070° at 18 KTS
  • {Gusting to 28 KTS
Cloud Levels

Jul-12@
20:00 UTC

Jul-12 @ 20:00 UTC

Jul-13@
08:00 UTC

Jul-13 @ 08:00 UTC

BECMG 1220/1222 05006KT

Expired

Wind
  • 050° at 6 KTS
Cloud Levels
  • No significant clouds

Jul-12@
23:00 UTC

Jul-12 @ 23:00 UTC

Jul-13@
06:00 UTC

Jul-13 @ 06:00 UTC

PROB30 TEMPO 1223/1306 34010KT

Expired

Wind
  • 340° at 10 KTS
Cloud Levels

Jul-13@
08:00 UTC

Jul-13 @ 08:00 UTC

Jul-13@
15:00 UTC

Jul-13 @ 15:00 UTC

BECMG 1308/1310 08016KT

Becoming

Becoming Conditions expected by Mon, Jul 13, 2020 @ 10:00 UTC

Wind
  • 080° at 16 KTS
Cloud Levels
  • No significant clouds

Jul-13@
10:00 UTC

Jul-13 @ 10:00 UTC

Jul-13@
15:00 UTC

Jul-13 @ 15:00 UTC

PROB30 TEMPO 1310/1315 08016G26KT

Temporary - 30% Likelihood

Temporary - 30% Likelihood during this time.

Wind
  • 080° at 16 KTS
  • {Gusting to 26 KTS
Cloud Levels